Alcester, South Dakota
Current Conditions -  °F | °C
As of 7:55 AM on Monday 24 Nov 2014 (Local Time) from KLRJ Reporting Station
Overcast Overcast  
Wind Chill:   Ceiling: 2300
Heat Index: 23°   Visibility: 10mi
Dew Point: 16°   Wind: 24mph
Humidity: 74%   Direction: 320°NW
Pressure: 29.62"   Gusts: 36mph
Location:  43.02°N, 96.63°W
Report Text: KLRJ 241355Z AUTO 32021G31KT 10SM BKN023 OVC035 M05/M09 A2962 RMK AO2
Loading
Personal Weather Stations






























Interactive Weather Map New forecast layout! Learn more

10-Day Weather Forecast

Advertisements
Track Severe Weather on mobile